Fort Myers, FL

6:48 PM EDT on July 26, 2016 (GMT -0400)
Page | | Change Station

Elev 16 ft 26.58 °N, 81.86 °W | Updated 55 minutes ago

Clear
Clear
89 °F
Feels Like 100 °F
N
6
Wind Variable Wind from ESE

Today
High -- | Low -- °F
--% Chance of Precip.
Yesterday
High -- | Low -- °F
Precip. -- in
Pressure 30.00 in
Visibility 10.0 miles
Clouds Clear
Heat Index 100 °F
Dew Point 76 °F
Humidity 65%
Rainfall 0.01 in
Snow Depth Not available.
6:49 AM 8:18 PM
Waning Gibbous, 50% visible
METAR KFMY 262153Z 11005KT 10SM CLR 32/24 A3000 RMK AO2 LTG DSNT ALQDS RAE04 SLP159 P0000 T03170244
Pressure 30.00 in
Visibility 10.0 miles
Clouds Clear
Heat Index 100 °F
Dew Point 76 °F
Humidity 65%
Rainfall 0.01 in
Snow Depth Not available.
6:49 AM 8:18 PM
Waning Gibbous, 50% visible
METAR KFMY 262153Z 11005KT 10SM CLR 32/24 A3000 RMK AO2 LTG DSNT ALQDS RAE04 SLP159 P0000 T03170244

10-Day Weather Forecast

Almanac

Astronomy

Jul. 26, 2016 Rise Set
Actual Time
Civil Twilight
Nautical Twilight
Astronomical Twilight
Moon
Length of Visible Light
Length of Day
Tomorrow will be .
, % of the Moon is Illuminated

Today's Extremes

State Highs State Lows

Community

WunderPhotos

Upload Photos

1,927,728 photos uploaded!

WunderBlog® & News

Nearby

Air Quality

  Air Quality AQ Index Pollutant
Not available.

Snow Depth

Station Depth Elevation

Earthquake Activity

City Distance Mag. Time & Date
Minimum magnitude displayed is 2.5.

Coastal Water Temperatures

Place Temperature

Stations

Nearby Weather Stations

Station Location Temp. Windchill Dew Point Humidity Wind Precip. Elev Updated Type
                   

Watches & Warnings

There are currently no watches in effect.